Etusivu
METAR-TAF:

METAR-TAF

Lentoasemat :

Pearson Field

Vancouver, Washington, Yhdysvallat

Leveyspiiri: 45-37-24N, Pituuspiiri: 122-39-23W, korkeus merenpinnasta: 7 m

Tämänhetkinen sää

Tämä raportti tehtiin 46 minuuttia sitten, kello 01.53 UTC
tyyntä
Lämpötila 4°C
Kosteus 81%
Ilmanpaine 1026 hPa
Näkyvyys: 16.1 km
selkeää

METAR: KVUO 230153Z AUTO 00000KT 10SM CLR 04/01 A3029 RMK AO2 SLP257 T00390006

Aika: 18:39 (02:39 UTC)


TAF: puuttuu

Säähavainnot ja -ennusteet yli 4000 lentoasemalta (METAR- ja TAF-raportit).

Käytössä olevat sääasemat on merkitty karttaan keltaisilla ja punaisilla pisteillä.

Aseta hiiri pisteen päälle nähdäksesi sääaseman nimen.

Klikkaa sitten nähdäksesi säähavainnot ja -ennusteet.

Kartan vaihtaminen: klikkaa mustalla rastilla varustettuja vihreitä pisteitä, niin voit zoomata sisään; viivalla varustettua vihreää pistettä, niin voit zoomata ulos tai vihreitä nuolia, niin pääset viereisille kartoille.


METAR-TAF: